Time;durP1;ratioP1;P1;durP2;ratioP2;P2;SDS_P1;SDS_P2;PMS_P1;PMS_P2;Temp;Humidity;BMP_temperature;BMP_pressure;BME280_temperature;BME280_humidity;BME280_pressure;Samples;Min_cycle;Max_cycle;Signal;HPM_P1;HPM_P2
2021/06/18 00:01:54;;;;;;;;;;;21.10;78.70;;;;;;5007559;28;19925;-67
2021/06/18 00:04:20;;;;;;;;;;;21.00;79.20;;;;;;5011039;28;19937;-66
2021/06/18 00:06:45;;;;;;;;;;;21.00;78.40;;;;;;5002572;28;20324;-66
2021/06/18 00:09:11;;;;;;;;;;;21.00;79.30;;;;;;5013879;28;19917;-67
2021/06/18 00:11:36;;;;;;;;;;;20.90;80.00;;;;;;5013326;28;20254;-64
2021/06/18 00:14:04;;;;;;;;;;;20.80;80.30;;;;;;5012204;28;19925;-66
2021/06/18 00:16:29;;;;;;;;;;;20.80;78.50;;;;;;5014247;28;20069;-67
2021/06/18 00:18:55;;;;;;;;;;;20.80;79.80;;;;;;5011499;28;19924;-67
2021/06/18 00:21:21;;;;;;;;;;;20.70;80.50;;;;;;5028574;28;20282;-66
2021/06/18 00:23:46;;;;;;;;;;;20.70;81.20;;;;;;5013720;28;19956;-67
2021/06/18 00:26:12;;;;;;;;;;;20.70;81.30;;;;;;5015467;28;19931;-68
2021/06/18 00:28:37;;;;;;;;;;;20.70;81.90;;;;;;5014907;28;20015;-66
2021/06/18 00:31:03;;;;;;;;;;;20.50;82.00;;;;;;5014858;28;20304;-67
2021/06/18 00:33:29;;;;;;;;;;;20.60;81.60;;;;;;5013149;28;19940;-67
2021/06/18 00:35:56;;;;;;;;;;;20.50;82.00;;;;;;5016329;28;20056;-66
2021/06/18 00:38:21;;;;;;;;;;;20.50;81.60;;;;;;5016874;28;19925;-66
2021/06/18 00:40:47;;;;;;;;;;;20.50;81.90;;;;;;5019620;28;19931;-67
2021/06/18 00:43:13;;;;;;;;;;;20.60;82.70;;;;;;5013974;28;19939;-66
2021/06/18 00:45:38;;;;;;;;;;;20.50;82.20;;;;;;5012892;28;19939;-67
2021/06/18 00:48:04;;;;;;;;;;;20.50;82.90;;;;;;5011271;28;20689;-67
2021/06/18 00:50:30;;;;;;;;;;;20.50;82.40;;;;;;5014094;28;20556;-67
2021/06/18 00:52:55;;;;;;;;;;;20.40;82.20;;;;;;5015062;28;20376;-68
2021/06/18 00:55:21;;;;;;;;;;;20.40;82.10;;;;;;5009917;28;19921;-67
2021/06/18 00:57:47;;;;;;;;;;;20.40;81.60;;;;;;5009531;28;19989;-67
2021/06/18 01:00:13;;;;;;;;;;;20.30;82.60;;;;;;5012191;28;20260;-67
2021/06/18 01:02:38;;;;;;;;;;;20.30;82.10;;;;;;5016654;28;20288;-67
2021/06/18 01:05:05;;;;;;;;;;;20.20;84.50;;;;;;5019141;28;19913;-67
2021/06/18 01:07:36;;;;;;;;;;;20.20;82.90;;;;;;5018943;28;19924;-66
2021/06/18 01:10:02;;;;;;;;;;;20.20;83.10;;;;;;5020374;28;20012;-67
2021/06/18 01:12:30;;;;;;;;;;;20.10;83.40;;;;;;5014712;28;20005;-67
2021/06/18 01:15:05;;;;;;;;;;;20.20;83.50;;;;;;5017628;28;19973;-67
2021/06/18 01:17:31;;;;;;;;;;;20.10;83.80;;;;;;5017073;28;19929;-67
2021/06/18 01:19:59;;;;;;;;;;;20.10;83.70;;;;;;5021068;28;20362;-68
2021/06/18 01:22:25;;;;;;;;;;;20.00;82.80;;;;;;5018991;28;19919;-66
2021/06/18 01:25:11;;;;;;;;;;;20.00;84.90;;;;;;5025401;28;19997;-67
2021/06/18 01:27:51;;;;;;;;;;;20.00;84.60;;;;;;5022263;28;19964;-67
2021/06/18 01:30:18;;;;;;;;;;;20.00;85.20;;;;;;5022632;28;20004;-66
2021/06/18 01:32:44;;;;;;;;;;;20.00;85.60;;;;;;5022781;28;19919;-67
2021/06/18 01:35:12;;;;;;;;;;;19.90;84.40;;;;;;5023023;28;20487;-67
2021/06/18 01:37:37;;;;;;;;;;;20.00;84.50;;;;;;5021141;28;19913;-67
2021/06/18 01:40:09;;;;;;;;;;;20.00;85.20;;;;;;5025317;28;19913;-67
2021/06/18 01:42:36;;;;;;;;;;;19.90;84.80;;;;;;5023523;28;19917;-67
2021/06/18 01:45:04;;;;;;;;;;;19.90;85.50;;;;;;5020540;28;19917;-67
2021/06/18 01:47:29;;;;;;;;;;;19.90;85.60;;;;;;5022195;28;20363;-65
2021/06/18 01:49:56;;;;;;;;;;;19.80;85.30;;;;;;5019099;28;19996;-65
2021/06/18 01:52:23;;;;;;;;;;;19.90;85.80;;;;;;5022288;28;20294;-66
2021/06/18 01:54:49;;;;;;;;;;;19.80;85.30;;;;;;5022433;28;20004;-65
2021/06/18 01:57:15;;;;;;;;;;;19.80;85.90;;;;;;5022175;28;19943;-67
2021/06/18 01:59:42;;;;;;;;;;;19.70;85.40;;;;;;5024199;28;20084;-67
2021/06/18 02:02:08;;;;;;;;;;;19.70;86.00;;;;;;5019424;28;19917;-67
2021/06/18 02:04:35;;;;;;;;;;;19.70;86.50;;;;;;5023942;28;19928;-67
2021/06/18 02:07:00;;;;;;;;;;;19.70;86.40;;;;;;5022262;28;20014;-66
2021/06/18 02:09:27;;;;;;;;;;;19.60;86.10;;;;;;5022903;28;19944;-67
2021/06/18 02:11:54;;;;;;;;;;;19.70;86.50;;;;;;5042008;28;20495;-67
2021/06/18 02:14:20;;;;;;;;;;;19.60;86.20;;;;;;5021622;28;19925;-67
2021/06/18 02:17:01;;;;;;;;;;;19.60;85.70;;;;;;5021800;28;19935;-66
2021/06/18 02:19:28;;;;;;;;;;;19.50;86.80;;;;;;5022240;28;19959;-66
2021/06/18 02:21:54;;;;;;;;;;;19.60;87.20;;;;;;5038209;28;20330;-67
2021/06/18 02:24:21;;;;;;;;;;;19.50;86.20;;;;;;5022549;28;19988;-66
2021/06/18 02:26:47;;;;;;;;;;;19.50;86.80;;;;;;5022097;28;19928;-67
2021/06/18 02:29:13;;;;;;;;;;;19.50;87.80;;;;;;5035965;28;19992;-65
2021/06/18 02:31:39;;;;;;;;;;;19.40;86.90;;;;;;5024094;28;20007;-66
2021/06/18 02:34:07;;;;;;;;;;;19.40;87.40;;;;;;5019872;28;19971;-65
2021/06/18 02:36:33;;;;;;;;;;;19.40;87.40;;;;;;5022597;28;19921;-67
2021/06/18 02:38:59;;;;;;;;;;;19.40;87.40;;;;;;5017989;28;19913;-67
2021/06/18 02:41:24;;;;;;;;;;;19.40;87.70;;;;;;5022960;28;20177;-65
2021/06/18 02:43:50;;;;;;;;;;;19.30;88.10;;;;;;5022327;28;19930;-67
2021/06/18 02:46:27;;;;;;;;;;;19.30;88.40;;;;;;5023078;28;20387;-67
2021/06/18 02:48:55;;;;;;;;;;;19.30;88.40;;;;;;5021538;28;19913;-67
2021/06/18 02:51:30;;;;;;;;;;;19.30;87.60;;;;;;5020728;28;20432;-67
2021/06/18 02:54:10;;;;;;;;;;;19.20;88.40;;;;;;5018664;28;19921;-65
2021/06/18 02:56:57;;;;;;;;;;;19.20;88.60;;;;;;5022615;28;19924;-66
2021/06/18 02:59:26;;;;;;;;;;;19.20;88.60;;;;;;5020547;28;19917;-65
2021/06/18 03:01:52;;;;;;;;;;;19.20;88.60;;;;;;5023939;28;19948;-66
2021/06/18 03:04:21;;;;;;;;;;;19.10;88.30;;;;;;5020455;28;20408;-68
2021/06/18 03:06:48;;;;;;;;;;;19.10;88.30;;;;;;5019217;28;19991;-65
2021/06/18 03:09:15;;;;;;;;;;;19.10;88.10;;;;;;5020607;28;20262;-67
2021/06/18 03:11:41;;;;;;;;;;;19.10;88.30;;;;;;5020312;28;20368;-66
2021/06/18 03:14:08;;;;;;;;;;;19.10;87.40;;;;;;5017677;28;19999;-67
2021/06/18 03:16:35;;;;;;;;;;;19.10;87.90;;;;;;5023462;28;19994;-67
2021/06/18 03:19:02;;;;;;;;;;;19.10;88.30;;;;;;5022658;28;20224;-67
2021/06/18 03:21:30;;;;;;;;;;;19.10;88.50;;;;;;5021153;28;20287;-66
2021/06/18 03:23:57;;;;;;;;;;;19.00;89.10;;;;;;5022513;28;19917;-65
2021/06/18 03:26:23;;;;;;;;;;;19.00;89.10;;;;;;5035293;28;20533;-66
2021/06/18 03:28:49;;;;;;;;;;;19.00;88.90;;;;;;5021785;28;19917;-67
2021/06/18 03:31:16;;;;;;;;;;;19.10;89.60;;;;;;5019732;28;19999;-67
2021/06/18 03:33:42;;;;;;;;;;;19.10;88.50;;;;;;5019857;28;20372;-68
2021/06/18 03:36:09;;;;;;;;;;;19.00;89.10;;;;;;5021768;28;19965;-66
2021/06/18 03:38:35;;;;;;;;;;;19.10;88.80;;;;;;5017319;28;19913;-66
2021/06/18 03:41:01;;;;;;;;;;;19.10;89.20;;;;;;5019204;28;20296;-67
2021/06/18 03:43:28;;;;;;;;;;;19.10;89.20;;;;;;5022385;28;19944;-65
2021/06/18 03:45:57;;;;;;;;;;;19.10;89.70;;;;;;5018924;28;19948;-66
2021/06/18 03:48:24;;;;;;;;;;;19.10;89.50;;;;;;5018352;28;20182;-67
2021/06/18 03:50:49;;;;;;;;;;;19.10;89.10;;;;;;5019466;28;19921;-67
2021/06/18 03:53:16;;;;;;;;;;;19.20;88.50;;;;;;5020134;28;19991;-67
2021/06/18 03:55:45;;;;;;;;;;;19.20;89.60;;;;;;5020496;28;19921;-65
2021/06/18 03:58:11;;;;;;;;;;;19.30;88.90;;;;;;5034886;28;20012;-67
2021/06/18 04:00:37;;;;;;;;;;;19.30;88.80;;;;;;5021814;28;19913;-66
2021/06/18 04:03:05;;;;;;;;;;;19.30;88.70;;;;;;5019121;28;19987;-67
2021/06/18 04:05:30;;;;;;;;;;;19.40;88.40;;;;;;5021742;28;19948;-67
2021/06/18 04:07:57;;;;;;;;;;;19.40;89.10;;;;;;5019761;28;20107;-65
2021/06/18 04:10:23;;;;;;;;;;;19.40;88.60;;;;;;5018904;28;20349;-67
2021/06/18 04:12:51;;;;;;;;;;;19.50;88.60;;;;;;5018220;28;19970;-65
2021/06/18 04:15:17;;;;;;;;;;;19.50;88.80;;;;;;5021120;28;20062;-67
2021/06/18 04:17:43;;;;;;;;;;;19.50;88.80;;;;;;5020679;28;20000;-66
2021/06/18 04:20:10;;;;;;;;;;;19.50;89.00;;;;;;5019927;28;19913;-68
2021/06/18 04:22:35;;;;;;;;;;;19.50;89.00;;;;;;5018109;28;20542;-62
2021/06/18 04:25:04;;;;;;;;;;;19.60;89.00;;;;;;5021451;28;19960;-61
2021/06/18 04:27:30;;;;;;;;;;;19.60;89.00;;;;;;5019348;28;20364;-61
2021/06/18 04:29:55;;;;;;;;;;;19.70;88.70;;;;;;5021205;28;19958;-62
2021/06/18 04:32:21;;;;;;;;;;;19.80;88.70;;;;;;5016354;28;19921;-62
2021/06/18 04:34:46;;;;;;;;;;;19.80;88.70;;;;;;5014267;28;20032;-62
2021/06/18 04:37:12;;;;;;;;;;;19.80;89.00;;;;;;5019280;28;19925;-62
2021/06/18 04:39:37;;;;;;;;;;;20.00;88.80;;;;;;5019349;28;19913;-63
2021/06/18 04:42:04;;;;;;;;;;;20.00;88.60;;;;;;5019004;28;19921;-62
2021/06/18 04:44:30;;;;;;;;;;;20.10;88.10;;;;;;5021495;28;19936;-63
2021/06/18 04:46:55;;;;;;;;;;;20.10;88.50;;;;;;5019708;28;19913;-62
2021/06/18 04:49:21;;;;;;;;;;;20.20;88.00;;;;;;5020014;28;19917;-62
2021/06/18 04:51:46;;;;;;;;;;;20.20;88.10;;;;;;5013931;28;21153;-62
2021/06/18 04:54:12;;;;;;;;;;;20.30;88.10;;;;;;5018922;28;19938;-62
2021/06/18 04:56:39;;;;;;;;;;;20.40;87.80;;;;;;5018058;28;19984;-63
2021/06/18 04:59:04;;;;;;;;;;;20.40;87.70;;;;;;5019804;28;19913;-63
2021/06/18 05:01:30;;;;;;;;;;;20.40;87.50;;;;;;5017847;28;20233;-62
2021/06/18 05:03:55;;;;;;;;;;;20.50;87.30;;;;;;5022005;28;19937;-62
2021/06/18 05:06:21;;;;;;;;;;;20.60;87.30;;;;;;5018485;28;20296;-62
2021/06/18 05:08:47;;;;;;;;;;;20.60;87.20;;;;;;5018324;28;20427;-62
2021/06/18 05:11:12;;;;;;;;;;;20.70;86.80;;;;;;5015857;28;19962;-62
2021/06/18 05:13:37;;;;;;;;;;;20.80;86.50;;;;;;5019938;28;19985;-63
2021/06/18 05:16:03;;;;;;;;;;;20.90;86.60;;;;;;5015589;28;19924;-63
2021/06/18 05:18:28;;;;;;;;;;;21.00;85.90;;;;;;5017546;28;19925;-62
2021/06/18 05:20:54;;;;;;;;;;;21.00;85.50;;;;;;5013925;28;20382;-63
2021/06/18 05:23:19;;;;;;;;;;;21.20;85.40;;;;;;5018360;28;19986;-63
2021/06/18 05:25:45;;;;;;;;;;;21.30;84.80;;;;;;5017505;28;19997;-62
2021/06/18 05:28:10;;;;;;;;;;;21.50;84.20;;;;;;5016909;28;20003;-63
2021/06/18 05:30:36;;;;;;;;;;;21.50;84.80;;;;;;5019398;28;20069;-63
2021/06/18 05:33:02;;;;;;;;;;;21.60;84.00;;;;;;5020571;28;20351;-62
2021/06/18 05:35:27;;;;;;;;;;;21.70;83.80;;;;;;5019317;28;20015;-63
2021/06/18 05:37:53;;;;;;;;;;;21.80;83.50;;;;;;5017668;28;19976;-64
2021/06/18 05:40:18;;;;;;;;;;;21.90;83.30;;;;;;5017525;28;19928;-63
2021/06/18 05:42:44;;;;;;;;;;;22.00;82.20;;;;;;5016849;28;20055;-64
2021/06/18 05:45:10;;;;;;;;;;;22.00;82.40;;;;;;5020914;28;19971;-64
2021/06/18 05:47:36;;;;;;;;;;;22.10;81.80;;;;;;5016413;28;19932;-64
2021/06/18 05:50:01;;;;;;;;;;;22.30;81.50;;;;;;5016895;28;19917;-63
2021/06/18 05:52:27;;;;;;;;;;;22.30;81.60;;;;;;5015631;28;20039;-63
2021/06/18 05:54:52;;;;;;;;;;;22.40;81.40;;;;;;5021595;28;20046;-65
2021/06/18 05:57:18;;;;;;;;;;;22.40;80.70;;;;;;5034130;28;19966;-64
2021/06/18 05:59:43;;;;;;;;;;;22.50;80.60;;;;;;5021197;28;19925;-63
2021/06/18 06:02:09;;;;;;;;;;;22.60;79.60;;;;;;5019333;28;19913;-63
2021/06/18 06:04:34;;;;;;;;;;;22.70;80.50;;;;;;5021225;28;19913;-64
2021/06/18 06:07:00;;;;;;;;;;;22.80;79.40;;;;;;5019305;28;19913;-63
2021/06/18 06:09:26;;;;;;;;;;;22.90;79.20;;;;;;5021663;28;20051;-68
2021/06/18 06:11:51;;;;;;;;;;;22.90;80.10;;;;;;5018108;28;19940;-68
2021/06/18 06:14:17;;;;;;;;;;;23.20;77.80;;;;;;5023391;28;19959;-68
2021/06/18 06:16:43;;;;;;;;;;;23.40;77.40;;;;;;5024037;28;19956;-68
2021/06/18 06:19:09;;;;;;;;;;;23.50;77.70;;;;;;5024617;28;20300;-69
2021/06/18 06:21:34;;;;;;;;;;;23.60;77.20;;;;;;5020565;28;19913;-68
2021/06/18 06:24:00;;;;;;;;;;;23.70;75.40;;;;;;5020140;28;20001;-69
2021/06/18 06:26:25;;;;;;;;;;;23.90;76.20;;;;;;5020557;28;20038;-69
2021/06/18 06:28:51;;;;;;;;;;;24.10;75.70;;;;;;5020501;28;19964;-68
2021/06/18 06:31:16;;;;;;;;;;;24.20;76.60;;;;;;5024532;28;19924;-68
2021/06/18 06:33:42;;;;;;;;;;;24.30;74.90;;;;;;5020944;28;19913;-68
2021/06/18 06:36:08;;;;;;;;;;;24.50;75.10;;;;;;5022762;28;19957;-67
2021/06/18 06:38:34;;;;;;;;;;;24.60;73.50;;;;;;5022470;28;20370;-67
2021/06/18 06:41:00;;;;;;;;;;;24.90;72.30;;;;;;5015740;28;19960;-67
2021/06/18 06:43:25;;;;;;;;;;;24.80;70.40;;;;;;5022271;28;19938;-67
2021/06/18 06:45:51;;;;;;;;;;;25.00;69.70;;;;;;5024136;28;19931;-67
2021/06/18 06:48:16;;;;;;;;;;;25.20;69.80;;;;;;5020666;28;19909;-67
2021/06/18 06:50:42;;;;;;;;;;;25.30;68.60;;;;;;5017389;28;19925;-68
2021/06/18 06:53:08;;;;;;;;;;;25.60;69.10;;;;;;5020989;28;20394;-67
2021/06/18 06:55:34;;;;;;;;;;;25.80;67.10;;;;;;5024455;28;19917;-66
2021/06/18 06:57:59;;;;;;;;;;;25.90;65.00;;;;;;5021964;28;19921;-66
2021/06/18 07:00:25;;;;;;;;;;;26.00;65.90;;;;;;5022330;28;19921;-66
2021/06/18 07:02:50;;;;;;;;;;;26.00;63.80;;;;;;5018506;28;19921;-66
2021/06/18 07:05:16;;;;;;;;;;;26.30;64.20;;;;;;5021758;28;20256;-66
2021/06/18 07:07:41;;;;;;;;;;;26.40;64.30;;;;;;5020920;28;20016;-66
2021/06/18 07:10:07;;;;;;;;;;;26.30;62.00;;;;;;5020674;28;19958;-66
2021/06/18 07:12:33;;;;;;;;;;;26.30;61.90;;;;;;5020054;28;19972;-66
2021/06/18 07:14:59;;;;;;;;;;;26.70;63.60;;;;;;5018962;28;19925;-66
2021/06/18 07:17:24;;;;;;;;;;;26.90;59.70;;;;;;5019002;28;19975;-66
2021/06/18 07:19:51;;;;;;;;;;;27.10;62.50;;;;;;5014968;28;20313;-66
2021/06/18 07:22:19;;;;;;;;;;;27.30;59.60;;;;;;5017517;28;20522;-67
2021/06/18 07:24:45;;;;;;;;;;;27.50;59.30;;;;;;5023041;28;20438;-66
2021/06/18 07:27:10;;;;;;;;;;;27.50;58.90;;;;;;5022764;28;20352;-66
2021/06/18 07:29:36;;;;;;;;;;;27.60;61.90;;;;;;5037264;28;19985;-66
2021/06/18 07:32:02;;;;;;;;;;;27.80;60.10;;;;;;5020170;28;20308;-67
2021/06/18 07:34:27;;;;;;;;;;;27.70;59.30;;;;;;5021960;28;20296;-65
2021/06/18 07:36:53;;;;;;;;;;;27.90;58.50;;;;;;5021411;28;20093;-65
2021/06/18 07:39:18;;;;;;;;;;;28.00;57.40;;;;;;5022715;28;19924;-66
2021/06/18 07:41:45;;;;;;;;;;;27.90;56.70;;;;;;5020295;28;19921;-65
2021/06/18 07:44:10;;;;;;;;;;;28.10;56.30;;;;;;5032182;28;19917;-67
2021/06/18 07:46:36;;;;;;;;;;;28.20;56.60;;;;;;5020187;28;19914;-65
2021/06/18 07:49:02;;;;;;;;;;;28.30;58.10;;;;;;5019644;28;20151;-67
2021/06/18 07:51:27;;;;;;;;;;;28.40;56.60;;;;;;5018449;28;20142;-66
2021/06/18 07:53:53;;;;;;;;;;;28.60;58.30;;;;;;5020065;28;19960;-65
2021/06/18 07:56:24;;;;;;;;;;;28.60;55.60;;;;;;5022618;28;19925;-66
2021/06/18 07:58:49;;;;;;;;;;;28.90;55.80;;;;;;5020656;28;20313;-66
2021/06/18 08:01:15;;;;;;;;;;;28.90;55.40;;;;;;5021904;28;20036;-67
2021/06/18 08:03:41;;;;;;;;;;;29.00;53.90;;;;;;5018183;28;20532;-67
2021/06/18 08:06:06;;;;;;;;;;;28.90;54.10;;;;;;5021728;28;19936;-67
2021/06/18 08:08:32;;;;;;;;;;;28.80;53.80;;;;;;5020032;28;19935;-65
2021/06/18 08:10:57;;;;;;;;;;;28.80;53.40;;;;;;5017830;28;20367;-67
2021/06/18 08:13:23;;;;;;;;;;;28.80;54.70;;;;;;5019484;28;19921;-67
2021/06/18 08:15:48;;;;;;;;;;;29.10;55.90;;;;;;5022727;28;19920;-66
2021/06/18 08:18:14;;;;;;;;;;;29.20;56.00;;;;;;5020413;28;20004;-67
2021/06/18 08:20:39;;;;;;;;;;;29.20;55.20;;;;;;5019409;28;19928;-66
2021/06/18 08:23:05;;;;;;;;;;;28.90;55.50;;;;;;5019405;28;19940;-65
2021/06/18 08:25:30;;;;;;;;;;;29.40;53.80;;;;;;5019822;28;19990;-66
2021/06/18 08:27:56;;;;;;;;;;;29.40;55.00;;;;;;5018956;28;20297;-67
2021/06/18 08:30:24;;;;;;;;;;;29.20;53.40;;;;;;5021760;28;20183;-66
2021/06/18 08:32:50;;;;;;;;;;;28.90;53.10;;;;;;5019827;28;19917;-66
2021/06/18 08:35:15;;;;;;;;;;;29.50;53.60;;;;;;5021403;28;19923;-66
2021/06/18 08:37:41;;;;;;;;;;;29.60;54.10;;;;;;5019391;28;19925;-67
2021/06/18 08:40:07;;;;;;;;;;;29.90;54.80;;;;;;5021582;28;19924;-67
2021/06/18 08:42:33;;;;;;;;;;;29.90;53.10;;;;;;5018619;28;19975;-67
2021/06/18 08:44:59;;;;;;;;;;;30.20;52.20;;;;;;5022342;28;19913;-67
2021/06/18 08:47:24;;;;;;;;;;;30.20;51.60;;;;;;5019804;28;19979;-65
2021/06/18 08:49:51;;;;;;;;;;;30.50;52.90;;;;;;5021115;28;19913;-67
2021/06/18 08:52:17;;;;;;;;;;;31.10;50.60;;;;;;5019213;28;19983;-67
2021/06/18 08:54:44;;;;;;;;;;;30.90;48.10;;;;;;5022745;28;20459;-66
2021/06/18 08:57:14;;;;;;;;;;;30.90;49.30;;;;;;5022406;28;20365;-67
2021/06/18 08:59:40;;;;;;;;;;;31.20;49.10;;;;;;5021023;28;19978;-67
2021/06/18 09:02:05;;;;;;;;;;;31.20;49.10;;;;;;5019474;28;19928;-66
2021/06/18 09:04:31;;;;;;;;;;;31.40;47.90;;;;;;5020095;28;19928;-66
2021/06/18 09:06:57;;;;;;;;;;;31.60;48.80;;;;;;5022213;28;19949;-67
2021/06/18 09:09:24;;;;;;;;;;;32.30;46.90;;;;;;5020467;28;19975;-67
2021/06/18 09:11:52;;;;;;;;;;;32.00;45.10;;;;;;5019542;28;20020;-67
2021/06/18 09:14:19;;;;;;;;;;;31.90;44.70;;;;;;5032011;28;19917;-66
2021/06/18 09:17:05;;;;;;;;;;;31.40;46.20;;;;;;5021669;28;19921;-67
2021/06/18 09:19:30;;;;;;;;;;;31.70;45.30;;;;;;5019701;28;19928;-67
2021/06/18 09:22:05;;;;;;;;;;;31.90;45.70;;;;;;5019028;28;20063;-67
2021/06/18 09:24:31;;;;;;;;;;;32.00;46.30;;;;;;5019984;28;19909;-66
2021/06/18 09:26:58;;;;;;;;;;;31.70;45.50;;;;;;5018522;28;19913;-67
2021/06/18 09:29:24;;;;;;;;;;;31.70;45.70;;;;;;5018820;28;20257;-66
2021/06/18 09:31:49;;;;;;;;;;;31.70;47.80;;;;;;5018762;28;20002;-67
2021/06/18 09:34:27;;;;;;;;;;;32.40;45.80;;;;;;5019140;28;19929;-66
2021/06/18 09:37:11;;;;;;;;;;;32.70;47.80;;;;;;5020248;28;20047;-67
2021/06/18 09:39:52;;;;;;;;;;;32.40;47.50;;;;;;5020078;28;19913;-67
2021/06/18 09:42:23;;;;;;;;;;;32.00;49.30;;;;;;5020477;28;20011;-67
2021/06/18 09:45:07;;;;;;;;;;;32.30;49.30;;;;;;5023389;28;19909;-67
2021/06/18 09:47:34;;;;;;;;;;;32.30;47.80;;;;;;5016635;28;19919;-67
2021/06/18 09:50:00;;;;;;;;;;;32.60;46.90;;;;;;5017641;28;19921;-68
2021/06/18 09:52:26;;;;;;;;;;;32.40;47.40;;;;;;5014451;28;19923;-67
2021/06/18 09:54:55;;;;;;;;;;;32.40;47.40;;;;;;5022221;28;19928;-67
2021/06/18 09:57:40;;;;;;;;;;;32.40;48.30;;;;;;5018287;28;20267;-66
2021/06/18 10:00:07;;;;;;;;;;;32.80;48.10;;;;;;5023614;28;19917;-67
2021/06/18 10:02:38;;;;;;;;;;;32.50;47.80;;;;;;5018352;28;19916;-66
2021/06/18 10:05:05;;;;;;;;;;;32.60;48.30;;;;;;5019636;28;19992;-67
2021/06/18 10:07:33;;;;;;;;;;;32.10;48.40;;;;;;5021257;28;19961;-67
2021/06/18 10:09:59;;;;;;;;;;;32.30;48.70;;;;;;5023592;28;20360;-67
2021/06/18 10:12:27;;;;;;;;;;;32.30;49.10;;;;;;5021151;28;19925;-66
2021/06/18 10:14:54;;;;;;;;;;;32.50;48.50;;;;;;5021187;28;19921;-69
2021/06/18 10:17:19;;;;;;;;;;;32.90;48.70;;;;;;5023090;28;20450;-67
2021/06/18 10:19:45;;;;;;;;;;;32.90;49.00;;;;;;5024044;28;19999;-67
2021/06/18 10:22:12;;;;;;;;;;;32.80;49.60;;;;;;5020920;28;20008;-66
2021/06/18 10:24:41;;;;;;;;;;;33.00;46.40;;;;;;5023601;28;19940;-66
2021/06/18 10:27:07;;;;;;;;;;;33.00;47.10;;;;;;5021445;28;19940;-68
2021/06/18 10:29:36;;;;;;;;;;;33.40;46.20;;;;;;5021123;28;19947;-67
2021/06/18 10:32:22;;;;;;;;;;;32.80;47.80;;;;;;5021183;28;19921;-67
2021/06/18 10:34:47;;;;;;;;;;;33.40;48.10;;;;;;5025993;28;19941;-66
2021/06/18 10:37:24;;;;;;;;;;;33.10;47.30;;;;;;5023018;28;20002;-67
2021/06/18 10:39:51;;;;;;;;;;;32.90;47.70;;;;;;5015697;28;19924;-68
2021/06/18 10:42:17;;;;;;;;;;;32.80;49.40;;;;;;5022849;28;19975;-68
2021/06/18 10:44:44;;;;;;;;;;;32.70;49.00;;;;;;5023810;28;19990;-68
2021/06/18 10:47:21;;;;;;;;;;;33.10;49.00;;;;;;5021792;28;20470;-67
2021/06/18 10:49:47;;;;;;;;;;;32.90;47.90;;;;;;5020339;28;19913;-68
2021/06/18 10:52:17;;;;;;;;;;;33.10;50.00;;;;;;5019682;28;19990;-67
2021/06/18 10:54:50;;;;;;;;;;;32.90;48.90;;;;;;5016395;28;19921;-67
2021/06/18 10:57:18;;;;;;;;;;;33.90;49.60;;;;;;5022637;28;20229;-68
2021/06/18 10:59:45;;;;;;;;;;;34.00;46.40;;;;;;5022609;28;20311;-66
2021/06/18 11:02:20;;;;;;;;;;;34.20;48.10;;;;;;5019666;28;19947;-67
2021/06/18 11:04:46;;;;;;;;;;;34.40;45.60;;;;;;5020341;28;20000;-68
2021/06/18 11:07:18;;;;;;;;;;;34.00;46.70;;;;;;5017608;28;19944;-67
2021/06/18 11:09:44;;;;;;;;;;;33.90;47.40;;;;;;5038466;28;19917;-68
2021/06/18 11:12:22;;;;;;;;;;;33.70;46.80;;;;;;5019983;28;19925;-66
2021/06/18 11:14:48;;;;;;;;;;;33.50;47.60;;;;;;5020138;28;19989;-67
2021/06/18 11:17:32;;;;;;;;;;;33.80;47.60;;;;;;5015102;28;19925;-67
2021/06/18 11:19:58;;;;;;;;;;;34.40;46.10;;;;;;5019426;28;20252;-68
2021/06/18 11:22:37;;;;;;;;;;;34.40;45.30;;;;;;5019263;28;19932;-67
2021/06/18 11:25:03;;;;;;;;;;;33.90;47.30;;;;;;5019093;28;20306;-67
2021/06/18 11:27:32;;;;;;;;;;;34.40;47.40;;;;;;5020908;28;19957;-67
2021/06/18 11:30:16;;;;;;;;;;;33.80;46.50;;;;;;5022278;28;19925;-67
2021/06/18 11:32:44;;;;;;;;;;;33.50;47.50;;;;;;5020592;28;19917;-67
2021/06/18 11:35:45;;;;;;;;;;;34.30;45.90;;;;;;5023146;28;19981;-67
2021/06/18 11:38:15;;;;;;;;;;;34.50;46.40;;;;;;5009853;28;19939;-66
2021/06/18 11:40:42;;;;;;;;;;;34.50;45.00;;;;;;5017149;28;19943;-68
2021/06/18 11:43:08;;;;;;;;;;;34.90;45.00;;;;;;5021009;28;20060;-67
2021/06/18 11:45:41;;;;;;;;;;;34.90;46.30;;;;;;5020508;28;20008;-68
2021/06/18 11:48:13;;;;;;;;;;;34.50;44.30;;;;;;5020652;28;20236;-67
2021/06/18 11:50:39;;;;;;;;;;;34.40;44.80;;;;;;5023313;28;19909;-69
2021/06/18 11:53:04;;;;;;;;;;;34.70;44.90;;;;;;5021221;28;19924;-69
2021/06/18 11:55:30;;;;;;;;;;;34.90;44.80;;;;;;4992928;28;19932;-69
2021/06/18 11:57:55;;;;;;;;;;;34.80;44.90;;;;;;5020966;28;19914;-69
2021/06/18 12:00:31;;;;;;;;;;;34.90;43.10;;;;;;5022156;28;19913;-69
2021/06/18 12:02:58;;;;;;;;;;;35.10;43.90;;;;;;4985937;28;20020;-69
2021/06/18 12:05:29;;;;;;;;;;;34.70;44.30;;;;;;5010257;28;20560;-69
2021/06/18 12:07:54;;;;;;;;;;;34.90;43.50;;;;;;5010797;28;19916;-70
2021/06/18 12:10:24;;;;;;;;;;;35.40;43.50;;;;;;5012912;28;20050;-69
2021/06/18 12:12:51;;;;;;;;;;;34.90;43.60;;;;;;5008450;28;20552;-69
2021/06/18 12:15:17;;;;;;;;;;;34.90;44.00;;;;;;5018010;28;19958;-68
2021/06/18 12:17:50;;;;;;;;;;;35.10;45.00;;;;;;5011287;28;20050;-68
2021/06/18 12:20:26;;;;;;;;;;;35.00;43.60;;;;;;5011284;28;20353;-69
2021/06/18 12:22:52;;;;;;;;;;;34.90;43.90;;;;;;5012716;28;20020;-69
2021/06/18 12:25:17;;;;;;;;;;;35.20;43.60;;;;;;5009563;28;19913;-69
2021/06/18 12:27:43;;;;;;;;;;;35.00;43.40;;;;;;5013731;28;19971;-68
2021/06/18 12:30:13;;;;;;;;;;;35.00;43.90;;;;;;5011160;28;19921;-69
2021/06/18 12:32:38;;;;;;;;;;;36.40;43.80;;;;;;5012215;28;19944;-69
2021/06/18 12:35:06;;;;;;;;;;;36.60;40.90;;;;;;5007617;28;19967;-69
2021/06/18 12:37:32;;;;;;;;;;;37.10;40.90;;;;;;5007957;28;19922;-68
2021/06/18 12:40:00;;;;;;;;;;;36.20;41.20;;;;;;5008339;28;19920;-69
2021/06/18 12:42:27;;;;;;;;;;;36.10;41.70;;;;;;5009638;28;19917;-68
2021/06/18 12:45:12;;;;;;;;;;;36.00;42.10;;;;;;5014226;28;20368;-69
2021/06/18 12:47:39;;;;;;;;;;;36.50;40.40;;;;;;5014643;28;19913;-70
2021/06/18 12:50:40;;;;;;;;;;;36.40;40.80;;;;;;5014062;28;19927;-70
2021/06/18 12:53:10;;;;;;;;;;;37.30;40.30;;;;;;5005763;28;19980;-70
2021/06/18 12:55:37;;;;;;;;;;;38.40;36.80;;;;;;5009389;28;19995;-69
2021/06/18 12:58:02;;;;;;;;;;;38.00;38.50;;;;;;5013049;28;19971;-69
2021/06/18 13:00:29;;;;;;;;;;;38.00;38.20;;;;;;5016680;28;19998;-69
2021/06/18 13:02:57;;;;;;;;;;;38.60;37.10;;;;;;5012077;28;19921;-69
2021/06/18 13:05:25;;;;;;;;;;;38.80;36.10;;;;;;5016561;28;19917;-69
2021/06/18 13:07:51;;;;;;;;;;;38.40;37.00;;;;;;5015866;28;19924;-69
2021/06/18 13:10:17;;;;;;;;;;;37.20;38.60;;;;;;5013676;28;19914;-69
2021/06/18 13:12:55;;;;;;;;;;;36.80;39.70;;;;;;5013109;28;20000;-69
2021/06/18 13:15:25;;;;;;;;;;;36.90;39.00;;;;;;5007712;28;19921;-70
2021/06/18 13:17:51;;;;;;;;;;;37.40;40.00;;;;;;5011756;28;19928;-69
2021/06/18 13:20:34;;;;;;;;;;;37.60;37.70;;;;;;5013879;28;19944;-69
2021/06/18 13:22:59;;;;;;;;;;;37.20;38.10;;;;;;5012747;28;20296;-69
2021/06/18 13:25:29;;;;;;;;;;;37.50;38.40;;;;;;5014000;28;19914;-69
2021/06/18 13:28:00;;;;;;;;;;;37.10;38.30;;;;;;5014761;28;20023;-69
2021/06/18 13:30:25;;;;;;;;;;;37.60;36.80;;;;;;5016020;28;20388;-68
2021/06/18 13:32:52;;;;;;;;;;;37.90;36.30;;;;;;5014578;28;20008;-69
2021/06/18 13:35:18;;;;;;;;;;;38.40;35.90;;;;;;5014446;28;19917;-70
2021/06/18 13:37:48;;;;;;;;;;;37.90;36.50;;;;;;5008731;28;19919;-70
2021/06/18 13:40:25;;;;;;;;;;;38.10;36.90;;;;;;5011383;28;19965;-70
2021/06/18 13:42:51;;;;;;;;;;;39.00;35.90;;;;;;5016627;28;19975;-69
2021/06/18 13:45:17;;;;;;;;;;;38.40;35.70;;;;;;5012708;28;20001;-68
2021/06/18 13:47:42;;;;;;;;;;;38.80;34.90;;;;;;5015218;28;19921;-70
2021/06/18 13:50:09;;;;;;;;;;;39.30;34.60;;;;;;5015546;28;20301;-69
2021/06/18 13:52:35;;;;;;;;;;;40.00;34.70;;;;;;5015438;28;19925;-69
2021/06/18 13:55:01;;;;;;;;;;;39.90;32.60;;;;;;5012022;28;19923;-69
2021/06/18 13:57:27;;;;;;;;;;;39.90;35.60;;;;;;5014092;28;19921;-69
2021/06/18 13:59:52;;;;;;;;;;;40.10;33.20;;;;;;5010050;28;19910;-69
2021/06/18 14:02:18;;;;;;;;;;;39.70;33.60;;;;;;5015376;28;19917;-69
2021/06/18 14:04:47;;;;;;;;;;;40.30;31.90;;;;;;5014680;28;20075;-69
2021/06/18 14:07:13;;;;;;;;;;;40.30;34.20;;;;;;5006732;28;19913;-69
2021/06/18 14:09:39;;;;;;;;;;;40.30;33.00;;;;;;5015183;28;20244;-70
2021/06/18 14:12:05;;;;;;;;;;;40.70;32.80;;;;;;5009911;28;20465;-69
2021/06/18 14:14:38;;;;;;;;;;;39.80;33.00;;;;;;5015100;28;19928;-71
2021/06/18 14:17:03;;;;;;;;;;;40.40;32.40;;;;;;5016201;28;20364;-69
2021/06/18 14:19:29;;;;;;;;;;;40.10;32.00;;;;;;5012518;28;19960;-69